createdAt,value
2018-03-02T00:01:52.968Z,29.72
2018-03-02T00:04:22.169Z,26.20
2018-03-02T00:06:51.363Z,33.35
2018-03-02T00:09:22.469Z,37.10
2018-03-02T00:11:53.785Z,34.60
2018-03-02T00:14:25.993Z,40.28
2018-03-02T00:16:56.895Z,43.85
2018-03-02T00:19:28.533Z,45.62
2018-03-02T00:22:00.591Z,40.58
2018-03-02T00:24:31.009Z,48.33
2018-03-02T00:27:00.423Z,43.35
2018-03-02T00:29:33.971Z,40.13
2018-03-02T00:32:03.069Z,39.08
2018-03-02T00:34:33.256Z,35.87
2018-03-02T00:37:03.883Z,38.52
2018-03-02T00:39:34.491Z,38.84
2018-03-02T00:42:08.151Z,37.47
2018-03-02T00:44:37.425Z,36.20
2018-03-02T00:47:06.819Z,34.23
2018-03-02T00:49:39.630Z,38.25
2018-03-02T00:52:09.037Z,36.17
2018-03-02T00:54:41.091Z,35.13
2018-03-02T00:57:11.716Z,32.83
2018-03-02T00:59:42.460Z,35.05
2018-03-02T01:02:12.217Z,35.47
2018-03-02T01:04:44.322Z,36.64
2018-03-02T01:07:15.114Z,26.68
2018-03-02T01:09:45.672Z,36.44
2018-03-02T01:12:18.015Z,36.28
2018-03-02T01:14:48.480Z,34.30
2018-03-02T01:17:19.024Z,38.63
2018-03-02T01:19:49.819Z,37.95
2018-03-02T01:22:22.832Z,34.80
2018-03-02T01:24:54.595Z,36.12
2018-03-02T01:27:24.301Z,41.83
2018-03-02T01:29:53.791Z,46.67
2018-03-02T01:32:24.517Z,41.90
2018-03-02T01:34:56.073Z,41.30
2018-03-02T01:37:26.560Z,41.22
2018-03-02T01:40:01.020Z,38.95
2018-03-02T01:42:34.960Z,37.39
2018-03-02T01:45:04.426Z,37.45
2018-03-02T01:47:33.668Z,33.47
2018-03-02T01:50:03.003Z,37.08
2018-03-02T01:52:33.265Z,33.20
2018-03-02T01:55:02.452Z,33.03
2018-03-02T01:57:33.695Z,35.50
2018-03-02T02:00:07.582Z,36.20
2018-03-02T02:02:36.839Z,37.30
2018-03-02T02:05:08.202Z,40.17
2018-03-02T02:07:37.443Z,39.92
2018-03-02T02:10:08.078Z,41.50
2018-03-02T02:12:37.567Z,40.17
2018-03-02T02:15:08.916Z,38.42
2018-03-02T02:17:42.179Z,41.26
2018-03-02T02:20:14.444Z,55.78
2018-03-02T02:22:43.770Z,48.93
2018-03-02T02:25:13.637Z,47.43
2018-03-02T02:27:45.353Z,44.93
2018-03-02T02:30:14.680Z,43.90
2018-03-02T02:32:45.158Z,43.58
2018-03-02T02:35:15.928Z,36.12
2018-03-02T02:37:46.434Z,37.17
2018-03-02T02:40:20.682Z,35.63
2018-03-02T02:42:50.153Z,36.70
2018-03-02T02:45:19.635Z,39.58
2018-03-02T02:47:48.876Z,39.23
2018-03-02T02:50:21.405Z,34.18
2018-03-02T02:52:50.772Z,35.05
2018-03-02T02:55:21.856Z,34.83
2018-03-02T02:57:53.691Z,35.78
2018-03-02T03:00:24.254Z,36.30
2018-03-02T03:02:54.142Z,40.25
2018-03-02T03:05:25.256Z,36.50
2018-03-02T03:07:55.779Z,39.00
2018-03-02T03:10:28.139Z,33.96
2018-03-02T03:12:57.404Z,34.33
2018-03-02T03:15:27.291Z,30.33
2018-03-02T03:18:00.646Z,34.63
2018-03-02T03:20:30.212Z,32.64
2018-03-02T03:23:02.139Z,33.62
2018-03-02T03:25:33.487Z,34.44
2018-03-02T03:28:03.075Z,33.45
2018-03-02T03:30:34.224Z,31.02
2018-03-02T03:33:05.888Z,32.52
2018-03-02T03:35:36.096Z,30.46
2018-03-02T03:38:07.757Z,31.78
2018-03-02T03:40:37.387Z,30.15
2018-03-02T03:43:08.439Z,30.65
2018-03-02T03:45:40.799Z,31.16
2018-03-02T03:48:13.905Z,31.55
2018-03-02T03:50:43.098Z,31.50
2018-03-02T03:53:12.686Z,29.08
2018-03-02T03:55:44.752Z,28.44
2018-03-02T03:58:16.036Z,28.90
2018-03-02T04:00:46.047Z,29.25
2018-03-02T04:03:16.954Z,30.50
2018-03-02T04:05:47.751Z,29.24
2018-03-02T04:08:18.827Z,31.02
2018-03-02T04:10:49.039Z,31.12
2018-03-02T04:13:18.982Z,33.45
2018-03-02T04:15:51.078Z,31.62
2018-03-02T04:18:22.788Z,29.40
2018-03-02T04:20:53.445Z,29.45
2018-03-02T04:23:25.320Z,30.23
2018-03-02T04:25:55.444Z,30.88
2018-03-02T04:28:26.683Z,35.84
2018-03-02T04:30:55.991Z,33.10
2018-03-02T04:33:28.703Z,36.30
2018-03-02T04:35:58.526Z,32.47
2018-03-02T04:38:27.958Z,33.63
2018-03-02T04:41:01.308Z,31.75
2018-03-02T04:43:31.595Z,33.10
2018-03-02T04:46:01.860Z,31.98
2018-03-02T04:48:32.799Z,28.85
2018-03-02T04:51:03.928Z,28.46
2018-03-02T04:53:34.499Z,31.10
2018-03-02T04:56:04.684Z,32.68
2018-03-02T04:58:40.472Z,34.07
2018-03-02T05:01:09.547Z,34.65
2018-03-02T05:03:38.716Z,38.17
2018-03-02T05:06:09.652Z,35.56
2018-03-02T05:08:40.284Z,35.84
2018-03-02T05:11:11.184Z,40.28
2018-03-02T05:13:41.498Z,37.77
2018-03-02T05:16:11.084Z,41.67
2018-03-02T05:18:42.047Z,41.08
2018-03-02T05:21:13.861Z,37.32
2018-03-02T05:23:43.840Z,37.42
2018-03-02T05:26:14.387Z,37.80
2018-03-02T05:28:46.179Z,40.08
2018-03-02T05:31:15.874Z,38.05
2018-03-02T05:33:47.057Z,40.78
2018-03-02T05:36:19.837Z,41.62
2018-03-02T05:38:50.335Z,39.37
2018-03-02T05:41:20.278Z,34.13
2018-03-02T05:43:50.884Z,32.90
2018-03-02T05:46:27.528Z,34.19
2018-03-02T05:48:56.547Z,36.07
2018-03-02T05:51:25.976Z,36.25
2018-03-02T05:53:55.371Z,36.15
2018-03-02T05:56:24.832Z,31.84
2018-03-02T05:58:55.595Z,32.10
2018-03-02T06:01:26.250Z,37.00
2018-03-02T06:04:00.127Z,37.72
2018-03-02T06:06:29.398Z,40.00
2018-03-02T06:09:01.013Z,36.07
2018-03-02T06:11:31.428Z,40.85
2018-03-02T06:14:01.521Z,39.68
2018-03-02T06:16:31.426Z,38.17
2018-03-02T06:19:02.520Z,40.45
2018-03-02T06:21:33.104Z,42.88
2018-03-02T06:24:04.488Z,41.22
2018-03-02T06:26:34.996Z,34.80
2018-03-02T06:29:05.947Z,40.30
2018-03-02T06:31:36.872Z,41.88
2018-03-02T06:34:07.785Z,39.95
2018-03-02T06:36:38.703Z,34.05
2018-03-02T06:39:10.163Z,35.22
2018-03-02T06:41:44.127Z,34.16
2018-03-02T06:44:13.318Z,32.90
2018-03-02T06:46:43.566Z,38.66
2018-03-02T06:49:15.833Z,35.30
2018-03-02T06:51:46.289Z,33.40
2018-03-02T06:54:16.616Z,33.55
2018-03-02T06:56:46.995Z,24.70
2018-03-02T06:59:18.368Z,33.28
2018-03-02T07:01:49.626Z,31.15
2018-03-02T07:04:20.896Z,24.64
2018-03-02T07:06:51.338Z,25.67
2018-03-02T07:09:20.168Z,20.53
2018-03-02T07:11:51.245Z,31.50
2018-03-02T07:14:26.319Z,32.26
2018-03-02T07:17:03.035Z,10.43
2018-03-02T07:19:32.341Z,23.58
2018-03-02T07:22:01.511Z,28.15
2018-03-02T07:24:30.575Z,26.94
2018-03-02T07:26:59.816Z,21.60
2018-03-02T07:29:29.326Z,17.97
2018-03-02T07:31:59.875Z,12.10
2018-03-02T07:34:30.636Z,23.17
2018-03-02T07:37:00.929Z,20.62
2018-03-02T07:39:32.311Z,18.38
2018-03-02T07:42:02.843Z,13.85
2018-03-02T07:44:35.505Z,20.37
2018-03-02T07:47:04.407Z,19.90
2018-03-02T07:49:35.730Z,20.65
2018-03-02T07:52:05.314Z,22.92
2018-03-02T07:54:35.935Z,19.05
2018-03-02T07:57:06.508Z,22.55
2018-03-02T07:59:38.055Z,22.48
2018-03-02T08:02:08.766Z,28.73
2018-03-02T08:04:40.087Z,15.36
2018-03-02T08:07:11.180Z,20.80
2018-03-02T08:09:42.528Z,30.85
2018-03-02T08:12:14.398Z,28.94
2018-03-02T08:14:45.974Z,25.50
2018-03-02T08:17:16.111Z,12.20
2018-03-02T08:19:45.283Z,24.12
2018-03-02T08:22:16.979Z,26.78
2018-03-02T08:24:47.939Z,20.60
2018-03-02T08:27:17.094Z,25.92
2018-03-02T08:29:54.552Z,27.46
2018-03-02T08:32:23.835Z,25.62
2018-03-02T08:34:53.365Z,16.27
2018-03-02T08:37:23.664Z,12.23
2018-03-02T08:39:55.588Z,25.78
2018-03-02T08:42:25.000Z,24.67
2018-03-02T08:44:55.567Z,24.46
2018-03-02T08:47:27.623Z,19.78
2018-03-02T08:49:58.490Z,26.02
2018-03-02T08:52:27.587Z,25.23
2018-03-02T08:54:58.312Z,21.15
2018-03-02T08:57:28.236Z,23.77
2018-03-02T08:59:58.679Z,22.65
2018-03-02T09:02:29.284Z,25.82
2018-03-02T09:04:59.693Z,21.60
2018-03-02T09:07:31.484Z,18.52
2018-03-02T09:10:02.588Z,26.60
2018-03-02T09:12:33.184Z,23.20
2018-03-02T09:15:03.795Z,22.92
2018-03-02T09:17:34.710Z,17.95
2018-03-02T09:20:05.476Z,19.70
2018-03-02T09:22:34.590Z,22.17
2018-03-02T09:25:03.827Z,17.90
2018-03-02T09:27:32.890Z,20.02
2018-03-02T09:30:01.830Z,23.92
2018-03-02T09:32:30.774Z,24.87
2018-03-02T09:34:59.203Z,29.27
2018-03-02T09:37:28.311Z,29.47
2018-03-02T09:39:57.260Z,21.33
2018-03-02T09:42:26.137Z,20.53
2018-03-02T09:44:55.073Z,15.90
2018-03-02T09:47:24.331Z,22.85
2018-03-02T09:49:53.144Z,16.53
2018-03-02T09:52:21.970Z,27.33
2018-03-02T09:54:51.097Z,20.80
2018-03-02T09:57:20.219Z,24.63
2018-03-02T09:59:49.097Z,18.23
2018-03-02T10:02:18.730Z,19.93
2018-03-02T10:04:48.276Z,14.93
2018-03-02T10:07:17.431Z,19.27
2018-03-02T10:09:46.644Z,15.27
2018-03-02T10:12:15.809Z,19.05
2018-03-02T10:14:44.903Z,22.00
2018-03-02T10:17:13.606Z,19.67
2018-03-02T10:19:42.689Z,19.33
2018-03-02T10:22:11.816Z,22.07
2018-03-02T10:24:40.871Z,22.20
2018-03-02T10:27:09.776Z,22.20
2018-03-02T10:29:39.044Z,13.87
2018-03-02T10:32:07.868Z,23.67
2018-03-02T10:34:36.785Z,18.60
2018-03-02T10:37:05.875Z,23.03
2018-03-02T10:39:34.972Z,25.40
2018-03-02T10:42:03.850Z,27.77
2018-03-02T10:44:33.112Z,34.92
2018-03-02T10:47:02.503Z,53.40
2018-03-02T10:49:31.695Z,36.22
2018-03-02T10:52:00.776Z,40.08
2018-03-02T10:54:29.868Z,28.20
2018-03-02T10:56:58.645Z,21.67
2018-03-02T10:59:27.513Z,22.70
2018-03-02T11:01:56.591Z,17.98
2018-03-02T11:04:31.179Z,19.37
2018-03-02T11:07:00.400Z,20.58
2018-03-02T11:09:28.936Z,21.37
2018-03-02T11:11:58.017Z,19.80
2018-03-02T11:14:27.374Z,17.70
2018-03-02T11:16:56.456Z,19.83
2018-03-02T11:19:25.266Z,22.13
2018-03-02T11:21:54.160Z,22.40
2018-03-02T11:24:22.986Z,22.67
2018-03-02T11:26:51.860Z,19.70
2018-03-02T11:29:20.879Z,22.67
2018-03-02T11:31:49.772Z,20.90
2018-03-02T11:34:18.652Z,19.93
2018-03-02T11:36:47.595Z,27.10
2018-03-02T11:39:16.452Z,18.80
2018-03-02T11:41:45.611Z,18.55
2018-03-02T11:44:14.809Z,18.20
2018-03-02T11:46:43.627Z,20.37
2018-03-02T11:49:12.453Z,24.33
2018-03-02T11:51:41.675Z,17.27
2018-03-02T11:54:10.571Z,15.93
2018-03-02T11:56:39.731Z,16.48
2018-03-02T11:59:08.895Z,19.03
2018-03-02T12:01:37.761Z,18.77
2018-03-02T12:04:06.856Z,15.17
2018-03-02T12:06:36.285Z,30.83
2018-03-02T12:09:04.527Z,18.27
2018-03-02T12:11:33.351Z,16.30
2018-03-02T12:14:02.662Z,18.62
2018-03-02T12:16:31.743Z,13.90
2018-03-02T12:19:01.418Z,20.85
2018-03-02T12:21:30.625Z,19.80
2018-03-02T12:23:59.818Z,19.67
2018-03-02T12:26:28.988Z,19.40
2018-03-02T12:28:58.992Z,17.23
2018-03-02T12:31:28.255Z,18.65
2018-03-02T12:33:57.536Z,19.05
2018-03-02T12:36:28.804Z,17.62
2018-03-02T12:38:57.899Z,16.20
2018-03-02T12:41:27.048Z,16.80
2018-03-02T12:43:57.687Z,12.58
2018-03-02T12:46:28.127Z,15.25
2018-03-02T12:48:58.911Z,17.00
2018-03-02T12:51:29.724Z,14.48
2018-03-02T12:54:00.678Z,17.72
2018-03-02T12:56:31.152Z,15.64
2018-03-02T12:59:01.924Z,15.82
2018-03-02T13:01:32.862Z,15.63
2018-03-02T13:04:04.234Z,14.86
2018-03-02T13:06:34.778Z,15.30
2018-03-02T13:09:05.180Z,20.55
2018-03-02T13:11:35.574Z,17.73
2018-03-02T13:14:06.256Z,15.93
2018-03-02T13:16:37.639Z,19.38
2018-03-02T13:19:08.267Z,17.17
2018-03-02T13:21:39.651Z,17.74
2018-03-02T13:24:10.706Z,15.68
2018-03-02T13:26:52.316Z,16.80
2018-03-02T13:29:21.369Z,15.70
2018-03-02T13:31:50.558Z,19.80
2018-03-02T13:34:30.831Z,17.90
2018-03-02T13:36:59.936Z,19.58
2018-03-02T13:39:40.191Z,16.70
2018-03-02T13:42:10.191Z,17.37
2018-03-02T13:44:39.008Z,17.97
2018-03-02T13:47:08.111Z,17.07
2018-03-02T13:49:48.248Z,19.60
2018-03-02T13:52:17.125Z,21.60
2018-03-02T13:54:46.150Z,19.90
2018-03-02T13:57:26.243Z,16.30
2018-03-02T13:59:55.319Z,16.40
2018-03-02T14:02:35.031Z,16.73
2018-03-02T14:05:03.900Z,18.67
2018-03-02T14:07:32.780Z,17.53
2018-03-02T14:10:01.868Z,12.47
2018-03-02T14:12:30.702Z,15.53
2018-03-02T14:14:59.962Z,15.37
2018-03-02T14:17:28.784Z,18.33
2018-03-02T14:19:57.727Z,18.77
2018-03-02T14:22:26.934Z,18.52
2018-03-02T14:24:55.701Z,16.60
2018-03-02T14:27:24.766Z,17.17
2018-03-02T14:29:53.930Z,16.10
2018-03-02T14:32:23.079Z,17.17
2018-03-02T14:34:52.544Z,16.40
2018-03-02T14:37:21.724Z,15.88
2018-03-02T14:39:51.120Z,16.48
2018-03-02T14:42:20.325Z,13.73
2018-03-02T14:44:49.494Z,17.92
2018-03-02T14:47:18.644Z,18.05
2018-03-02T14:49:48.008Z,19.15
2018-03-02T14:52:17.468Z,16.80
2018-03-02T14:54:46.813Z,19.37
2018-03-02T14:57:17.452Z,18.84
2018-03-02T14:59:47.204Z,19.02
2018-03-02T15:02:17.908Z,16.67
2018-03-02T15:04:48.796Z,19.58
2018-03-02T15:07:19.828Z,17.17
2018-03-02T15:09:51.579Z,15.80
2018-03-02T15:12:21.282Z,16.73
2018-03-02T15:14:51.885Z,19.20
2018-03-02T15:17:22.742Z,23.50
2018-03-02T15:19:53.598Z,24.90
2018-03-02T15:22:24.223Z,22.90
2018-03-02T15:24:54.768Z,20.50
2018-03-02T15:27:25.788Z,19.37
2018-03-02T15:29:56.723Z,17.30
2018-03-02T15:32:28.097Z,19.70
2018-03-02T15:34:58.980Z,23.12
2018-03-02T15:37:29.540Z,20.60
2018-03-02T15:40:00.835Z,18.75
2018-03-02T15:42:31.304Z,17.62
2018-03-02T15:45:01.849Z,16.35
2018-03-02T15:47:32.779Z,17.62
2018-03-02T15:50:03.644Z,16.50
2018-03-02T15:52:34.613Z,15.02
2018-03-02T15:55:05.514Z,16.05
2018-03-02T15:57:36.527Z,18.17
2018-03-02T16:00:07.980Z,16.54
2018-03-02T16:02:38.524Z,17.32
2018-03-02T16:05:08.980Z,17.60
2018-03-02T16:07:39.847Z,15.90
2018-03-02T16:10:10.992Z,15.48
2018-03-02T16:12:41.857Z,16.10
2018-03-02T16:15:13.340Z,19.82
2018-03-02T16:17:44.700Z,25.02
2018-03-02T16:20:15.151Z,28.17
2018-03-02T16:22:49.851Z,30.27
2018-03-02T16:25:19.614Z,32.63
2018-03-02T16:27:49.746Z,26.27
2018-03-02T16:30:19.156Z,23.35
2018-03-02T16:32:49.836Z,26.34
2018-03-02T16:35:20.416Z,26.60
2018-03-02T16:37:51.365Z,26.22
2018-03-02T16:40:22.534Z,23.60
2018-03-02T16:42:52.150Z,24.83
2018-03-02T16:45:22.545Z,25.36
2018-03-02T16:47:53.308Z,22.50
2018-03-02T16:50:24.737Z,22.40
2018-03-02T16:52:55.139Z,26.33
2018-03-02T16:55:26.030Z,29.95
2018-03-02T16:57:58.032Z,31.82
2018-03-02T17:00:27.262Z,25.98
2018-03-02T17:02:58.237Z,20.90
2018-03-02T17:05:28.537Z,18.92
2018-03-02T17:07:59.972Z,18.55
2018-03-02T17:10:33.169Z,18.87
2018-03-02T17:13:02.357Z,28.55
2018-03-02T17:15:33.006Z,39.20
2018-03-02T17:18:04.857Z,40.37
2018-03-02T17:20:34.103Z,31.60
2018-03-02T17:23:04.863Z,26.88
2018-03-02T17:25:37.171Z,24.67
2018-03-02T17:28:06.692Z,23.04
2018-03-02T17:30:38.722Z,22.12
2018-03-02T17:33:08.532Z,20.42
2018-03-02T17:35:40.026Z,20.52
2018-03-02T17:38:11.068Z,22.00
2018-03-02T17:40:41.649Z,24.56
2018-03-02T17:43:16.369Z,30.00
2018-03-02T17:45:47.156Z,29.73
2018-03-02T17:48:16.761Z,26.72
2018-03-02T17:50:47.492Z,24.70
2018-03-02T17:53:16.888Z,22.20
2018-03-02T17:55:46.664Z,26.60
2018-03-02T17:58:22.460Z,26.02
2018-03-02T18:00:51.501Z,29.70
2018-03-02T18:03:21.049Z,27.73
2018-03-02T18:05:54.236Z,23.48
2018-03-02T18:08:23.584Z,19.80
2018-03-02T18:10:53.890Z,21.02
2018-03-02T18:13:23.484Z,21.48
2018-03-02T18:15:54.049Z,19.12
2018-03-02T18:18:27.860Z,20.85
2018-03-02T18:20:57.059Z,18.98
2018-03-02T18:23:27.409Z,21.17
2018-03-02T18:25:58.236Z,24.23
2018-03-02T18:28:29.984Z,20.84
2018-03-02T18:30:59.755Z,22.40
2018-03-02T18:33:31.058Z,22.67
2018-03-02T18:36:03.348Z,29.09
2018-03-02T18:38:34.296Z,32.78
2018-03-02T18:41:04.717Z,35.10
2018-03-02T18:43:34.042Z,32.72
2018-03-02T18:46:05.424Z,31.48
2018-03-02T18:48:38.264Z,30.60
2018-03-02T18:51:08.289Z,28.67
2018-03-02T18:53:38.283Z,31.36
2018-03-02T18:56:08.981Z,41.02
2018-03-02T18:58:40.231Z,64.22
2018-03-02T19:01:10.714Z,109.02
2018-03-02T19:03:43.452Z,86.42
2018-03-02T19:06:12.879Z,86.57
2018-03-02T19:08:42.595Z,67.95
2018-03-02T19:11:15.540Z,66.35
2018-03-02T19:13:45.537Z,90.95
2018-03-02T19:16:21.344Z,131.83
2018-03-02T19:18:51.086Z,135.90
2018-03-02T19:21:20.655Z,102.43
2018-03-02T19:23:51.061Z,72.57
2018-03-02T19:26:20.973Z,65.00
2018-03-02T19:28:50.834Z,53.38
2018-03-02T19:31:22.344Z,46.22
2018-03-02T19:33:51.798Z,42.20
2018-03-02T19:36:24.348Z,42.60
2018-03-02T19:38:56.545Z,43.05
2018-03-02T19:41:25.942Z,43.77
2018-03-02T19:43:55.550Z,45.72
2018-03-02T19:46:25.337Z,45.90
2018-03-02T19:48:57.023Z,44.10
2018-03-02T19:51:29.878Z,40.90
2018-03-02T19:53:59.520Z,40.20
2018-03-02T19:56:30.262Z,37.35
2018-03-02T19:59:00.960Z,35.65
2018-03-02T20:01:33.673Z,38.74
2018-03-02T20:04:06.410Z,42.08
2018-03-02T20:06:35.767Z,53.78
2018-03-02T20:09:06.823Z,40.18
2018-03-02T20:11:39.914Z,40.22
2018-03-02T20:14:10.697Z,37.63
2018-03-02T20:16:42.382Z,40.20
2018-03-02T20:19:11.935Z,40.35
2018-03-02T20:21:41.832Z,44.47
2018-03-02T20:24:12.873Z,42.78
2018-03-02T20:26:42.456Z,35.47
2018-03-02T20:29:12.800Z,35.25
2018-03-02T20:31:44.695Z,31.48
2018-03-02T20:34:15.306Z,28.32
2018-03-02T20:36:47.660Z,27.40
2018-03-02T20:39:17.660Z,27.75
2018-03-02T20:41:48.722Z,30.70
2018-03-02T20:44:21.582Z,28.48
2018-03-02T20:46:51.089Z,27.58
2018-03-02T20:49:20.656Z,26.67
2018-03-02T20:51:52.423Z,28.16
2018-03-02T20:54:22.178Z,29.08
2018-03-02T20:56:57.017Z,32.43
2018-03-02T20:59:26.676Z,29.70
2018-03-02T21:01:56.264Z,33.95
2018-03-02T21:04:26.676Z,30.83
2018-03-02T21:06:56.389Z,31.00
2018-03-02T21:09:30.231Z,34.01
2018-03-02T21:11:59.513Z,33.22
2018-03-02T21:14:30.729Z,31.00
2018-03-02T21:17:01.015Z,27.98
2018-03-02T21:19:31.549Z,28.42
2018-03-02T21:22:03.129Z,29.38
2018-03-02T21:24:35.034Z,32.72
2018-03-02T21:27:06.092Z,30.24
2018-03-02T21:29:36.901Z,32.90
2018-03-02T21:32:08.740Z,32.78
2018-03-02T21:34:37.803Z,36.23
2018-03-02T21:37:08.976Z,39.64
2018-03-02T21:39:39.292Z,39.13
2018-03-02T21:42:10.798Z,37.78
2018-03-02T21:44:40.524Z,38.83
2018-03-02T21:47:12.668Z,41.78
2018-03-02T21:49:47.206Z,44.14
2018-03-02T21:52:17.178Z,39.34
2018-03-02T21:54:48.398Z,42.85
2018-03-02T21:57:20.156Z,49.08
2018-03-02T21:59:51.565Z,42.44
2018-03-02T22:02:21.007Z,41.17
2018-03-02T22:04:50.707Z,43.40
2018-03-02T22:07:20.637Z,42.45
2018-03-02T22:09:51.226Z,43.33
2018-03-02T22:12:21.070Z,48.10
2018-03-02T22:14:52.552Z,59.38
2018-03-02T22:17:24.911Z,48.50
2018-03-02T22:19:55.345Z,45.73
2018-03-02T22:22:24.746Z,46.62
2018-03-02T22:24:55.376Z,47.10
2018-03-02T22:27:26.510Z,46.08
2018-03-02T22:29:58.173Z,45.10
2018-03-02T22:32:29.088Z,45.42
2018-03-02T22:34:58.737Z,45.90
2018-03-02T22:37:30.417Z,46.42
2018-03-02T22:40:00.320Z,43.33
2018-03-02T22:42:32.544Z,42.76
2018-03-02T22:45:04.908Z,46.07
2018-03-02T22:47:34.571Z,46.93
2018-03-02T22:50:07.394Z,43.06
2018-03-02T22:52:36.711Z,41.22
2018-03-02T22:55:07.558Z,42.60
2018-03-02T22:57:36.465Z,50.23
2018-03-02T23:00:06.665Z,46.05
2018-03-02T23:02:37.193Z,46.75
2018-03-02T23:05:11.117Z,48.20
2018-03-02T23:07:40.470Z,48.58
2018-03-02T23:10:11.930Z,45.70
2018-03-02T23:12:41.625Z,47.90
2018-03-02T23:15:14.417Z,43.70
2018-03-02T23:17:43.942Z,46.90
2018-03-02T23:20:14.561Z,55.15
2018-03-02T23:22:46.719Z,61.78
2018-03-02T23:25:17.497Z,60.52
2018-03-02T23:27:49.713Z,57.84
2018-03-02T23:30:19.732Z,53.33
2018-03-02T23:32:49.947Z,49.45
2018-03-02T23:35:19.856Z,49.13
2018-03-02T23:37:51.247Z,48.85
2018-03-02T23:40:22.048Z,51.17
2018-03-02T23:42:54.221Z,51.50
2018-03-02T23:45:25.487Z,51.86
2018-03-02T23:47:57.606Z,50.47
2018-03-02T23:50:26.615Z,45.25
2018-03-02T23:52:57.185Z,44.72
2018-03-02T23:55:35.126Z,47.99
2018-03-02T23:58:06.537Z,45.92
